sensor_id;sensor_type;location;lat;lon;timestamp;temperature;humidity
32977;DHT22;72327;50.842;4.450;2023-08-24T00:00:56;20.60;99.90
32977;DHT22;72327;50.842;4.450;2023-08-24T00:03:21;20.50;99.90
32977;DHT22;72327;50.842;4.450;2023-08-24T00:05:48;20.50;99.90
32977;DHT22;72327;50.842;4.450;2023-08-24T00:08:14;20.40;99.90
32977;DHT22;72327;50.842;4.450;2023-08-24T00:10:42;20.30;99.90
32977;DHT22;72327;50.842;4.450;2023-08-24T00:13:09;20.30;99.90
32977;DHT22;72327;50.842;4.450;2023-08-24T00:15:34;20.30;99.90
32977;DHT22;72327;50.842;4.450;2023-08-24T00:18:01;20.30;99.90
32977;DHT22;72327;50.842;4.450;2023-08-24T00:20:27;20.30;99.90
32977;DHT22;72327;50.842;4.450;2023-08-24T00:22:52;20.20;99.90
32977;DHT22;72327;50.842;4.450;2023-08-24T00:25:18;20.20;99.90
32977;DHT22;72327;50.842;4.450;2023-08-24T00:27:44;20.20;99.90
32977;DHT22;72327;50.842;4.450;2023-08-24T00:30:10;20.20;99.90
32977;DHT22;72327;50.842;4.450;2023-08-24T00:32:36;20.30;99.90
32977;DHT22;72327;50.842;4.450;2023-08-24T00:35:03;20.40;99.90
32977;DHT22;72327;50.842;4.450;2023-08-24T00:37:30;20.40;99.90
32977;DHT22;72327;50.842;4.450;2023-08-24T00:39:55;20.50;99.90
32977;DHT22;72327;50.842;4.450;2023-08-24T00:42:21;20.60;99.90
32977;DHT22;72327;50.842;4.450;2023-08-24T00:44:48;20.60;99.90
32977;DHT22;72327;50.842;4.450;2023-08-24T00:47:14;20.70;99.90
32977;DHT22;72327;50.842;4.450;2023-08-24T00:49:40;20.70;99.90
32977;DHT22;72327;50.842;4.450;2023-08-24T00:52:06;20.70;99.90
32977;DHT22;72327;50.842;4.450;2023-08-24T00:54:32;20.60;99.90
32977;DHT22;72327;50.842;4.450;2023-08-24T00:56:58;20.60;99.90
32977;DHT22;72327;50.842;4.450;2023-08-24T00:59:23;20.40;99.90
32977;DHT22;72327;50.842;4.450;2023-08-24T01:01:51;20.40;99.90
32977;DHT22;72327;50.842;4.450;2023-08-24T01:04:18;20.50;99.90
32977;DHT22;72327;50.842;4.450;2023-08-24T01:06:43;20.60;99.90
32977;DHT22;72327;50.842;4.450;2023-08-24T01:09:09;20.50;99.90
32977;DHT22;72327;50.842;4.450;2023-08-24T01:11:57;20.40;99.90
32977;DHT22;72327;50.842;4.450;2023-08-24T01:17:09;20.50;99.90
32977;DHT22;72327;50.842;4.450;2023-08-24T01:19:45;20.60;99.90
32977;DHT22;72327;50.842;4.450;2023-08-24T01:22:18;20.70;99.90
32977;DHT22;72327;50.842;4.450;2023-08-24T01:24:50;20.80;99.90
32977;DHT22;72327;50.842;4.450;2023-08-24T01:27:19;20.90;99.90
32977;DHT22;72327;50.842;4.450;2023-08-24T01:29:45;20.90;99.90
32977;DHT22;72327;50.842;4.450;2023-08-24T01:32:11;20.80;99.90
32977;DHT22;72327;50.842;4.450;2023-08-24T01:34:38;20.80;99.90
32977;DHT22;72327;50.842;4.450;2023-08-24T01:37:07;20.80;99.90
32977;DHT22;72327;50.842;4.450;2023-08-24T01:39:50;20.80;99.90
32977;DHT22;72327;50.842;4.450;2023-08-24T01:42:21;20.80;99.90
32977;DHT22;72327;50.842;4.450;2023-08-24T01:44:52;20.80;99.90
32977;DHT22;72327;50.842;4.450;2023-08-24T01:47:21;20.80;99.90
32977;DHT22;72327;50.842;4.450;2023-08-24T01:49:47;20.80;99.90
32977;DHT22;72327;50.842;4.450;2023-08-24T01:52:13;20.70;99.90
32977;DHT22;72327;50.842;4.450;2023-08-24T01:54:40;20.80;99.90
32977;DHT22;72327;50.842;4.450;2023-08-24T01:57:06;20.70;99.90
32977;DHT22;72327;50.842;4.450;2023-08-24T01:59:32;20.70;99.90
32977;DHT22;72327;50.842;4.450;2023-08-24T02:01:57;20.70;99.90
32977;DHT22;72327;50.842;4.450;2023-08-24T02:04:23;20.70;99.90
32977;DHT22;72327;50.842;4.450;2023-08-24T02:06:48;20.70;99.90
32977;DHT22;72327;50.842;4.450;2023-08-24T02:09:14;20.80;99.90
32977;DHT22;72327;50.842;4.450;2023-08-24T02:11:40;20.80;99.90
32977;DHT22;72327;50.842;4.450;2023-08-24T02:14:05;20.80;99.90
32977;DHT22;72327;50.842;4.450;2023-08-24T02:16:31;20.70;99.90
32977;DHT22;72327;50.842;4.450;2023-08-24T02:18:56;20.80;99.90
32977;DHT22;72327;50.842;4.450;2023-08-24T02:21:22;20.70;99.90
32977;DHT22;72327;50.842;4.450;2023-08-24T02:23:48;20.60;99.90
32977;DHT22;72327;50.842;4.450;2023-08-24T02:26:13;20.40;99.90
32977;DHT22;72327;50.842;4.450;2023-08-24T02:28:39;20.20;99.90
32977;DHT22;72327;50.842;4.450;2023-08-24T02:31:05;20.10;99.90
32977;DHT22;72327;50.842;4.450;2023-08-24T02:33:31;19.90;99.90
32977;DHT22;72327;50.842;4.450;2023-08-24T02:35:57;19.80;99.90
32977;DHT22;72327;50.842;4.450;2023-08-24T02:38:23;19.70;99.90
32977;DHT22;72327;50.842;4.450;2023-08-24T02:40:49;19.60;99.90
32977;DHT22;72327;50.842;4.450;2023-08-24T02:43:15;19.50;99.90
32977;DHT22;72327;50.842;4.450;2023-08-24T02:45:40;19.50;99.90
32977;DHT22;72327;50.842;4.450;2023-08-24T02:48:06;19.50;99.90
32977;DHT22;72327;50.842;4.450;2023-08-24T02:50:32;19.50;99.90
32977;DHT22;72327;50.842;4.450;2023-08-24T02:52:59;19.60;99.90
32977;DHT22;72327;50.842;4.450;2023-08-24T02:55:26;19.60;99.90
32977;DHT22;72327;50.842;4.450;2023-08-24T02:57:52;19.60;99.90
32977;DHT22;72327;50.842;4.450;2023-08-24T03:00:18;19.70;99.90
32977;DHT22;72327;50.842;4.450;2023-08-24T03:02:43;19.70;99.90
32977;DHT22;72327;50.842;4.450;2023-08-24T03:05:09;19.70;99.90
32977;DHT22;72327;50.842;4.450;2023-08-24T03:07:34;19.70;99.90
32977;DHT22;72327;50.842;4.450;2023-08-24T03:10:00;19.70;99.90
32977;DHT22;72327;50.842;4.450;2023-08-24T03:12:26;19.70;99.90
32977;DHT22;72327;50.842;4.450;2023-08-24T03:14:52;19.60;99.90
32977;DHT22;72327;50.842;4.450;2023-08-24T03:17:18;19.60;99.90
32977;DHT22;72327;50.842;4.450;2023-08-24T03:19:44;19.60;99.90
32977;DHT22;72327;50.842;4.450;2023-08-24T03:22:10;19.60;99.90
32977;DHT22;72327;50.842;4.450;2023-08-24T03:24:35;19.50;99.90
32977;DHT22;72327;50.842;4.450;2023-08-24T03:27:02;19.40;99.90
32977;DHT22;72327;50.842;4.450;2023-08-24T03:29:27;19.30;99.90
32977;DHT22;72327;50.842;4.450;2023-08-24T03:31:53;19.30;99.90
32977;DHT22;72327;50.842;4.450;2023-08-24T03:34:19;19.30;99.90
32977;DHT22;72327;50.842;4.450;2023-08-24T03:36:46;19.20;99.90
32977;DHT22;72327;50.842;4.450;2023-08-24T03:39:13;19.10;99.90
32977;DHT22;72327;50.842;4.450;2023-08-24T03:41:40;19.10;99.90
32977;DHT22;72327;50.842;4.450;2023-08-24T03:44:06;19.10;99.90
32977;DHT22;72327;50.842;4.450;2023-08-24T03:46:32;19.10;99.90
32977;DHT22;72327;50.842;4.450;2023-08-24T03:48:57;19.00;99.90
32977;DHT22;72327;50.842;4.450;2023-08-24T03:51:23;19.00;99.90
32977;DHT22;72327;50.842;4.450;2023-08-24T03:53:48;18.90;99.90
32977;DHT22;72327;50.842;4.450;2023-08-24T03:56:14;19.00;99.90
32977;DHT22;72327;50.842;4.450;2023-08-24T03:58:40;18.90;99.90
32977;DHT22;72327;50.842;4.450;2023-08-24T04:01:10;18.90;99.90
32977;DHT22;72327;50.842;4.450;2023-08-24T04:03:36;18.80;99.90
32977;DHT22;72327;50.842;4.450;2023-08-24T04:06:01;18.80;99.90
32977;DHT22;72327;50.842;4.450;2023-08-24T04:08:27;18.80;99.90
32977;DHT22;72327;50.842;4.450;2023-08-24T04:10:53;18.70;99.90
32977;DHT22;72327;50.842;4.450;2023-08-24T04:13:18;18.70;99.90
32977;DHT22;72327;50.842;4.450;2023-08-24T04:15:44;18.60;99.90
32977;DHT22;72327;50.842;4.450;2023-08-24T04:18:10;18.60;99.90
32977;DHT22;72327;50.842;4.450;2023-08-24T04:20:36;18.60;99.90
32977;DHT22;72327;50.842;4.450;2023-08-24T04:23:02;18.60;99.90
32977;DHT22;72327;50.842;4.450;2023-08-24T04:25:28;18.60;99.90
32977;DHT22;72327;50.842;4.450;2023-08-24T04:27:54;18.60;99.90
32977;DHT22;72327;50.842;4.450;2023-08-24T04:30:20;18.60;99.90
32977;DHT22;72327;50.842;4.450;2023-08-24T04:32:47;18.50;99.90
32977;DHT22;72327;50.842;4.450;2023-08-24T04:35:12;18.50;99.90
32977;DHT22;72327;50.842;4.450;2023-08-24T04:37:38;18.50;99.90
32977;DHT22;72327;50.842;4.450;2023-08-24T04:40:05;18.60;99.90
32977;DHT22;72327;50.842;4.450;2023-08-24T04:42:33;18.60;99.90
32977;DHT22;72327;50.842;4.450;2023-08-24T04:44:58;18.60;99.90
32977;DHT22;72327;50.842;4.450;2023-08-24T04:47:24;18.50;99.90
32977;DHT22;72327;50.842;4.450;2023-08-24T04:49:49;18.50;99.90
32977;DHT22;72327;50.842;4.450;2023-08-24T04:52:15;18.50;99.90
32977;DHT22;72327;50.842;4.450;2023-08-24T04:54:41;18.50;99.90
32977;DHT22;72327;50.842;4.450;2023-08-24T04:57:07;18.50;99.90
32977;DHT22;72327;50.842;4.450;2023-08-24T04:59:32;18.50;99.90
32977;DHT22;72327;50.842;4.450;2023-08-24T05:01:58;18.50;99.90
32977;DHT22;72327;50.842;4.450;2023-08-24T05:04:24;18.50;99.90
32977;DHT22;72327;50.842;4.450;2023-08-24T05:06:50;18.60;99.90
32977;DHT22;72327;50.842;4.450;2023-08-24T05:09:15;18.60;99.90
32977;DHT22;72327;50.842;4.450;2023-08-24T05:11:41;18.70;99.90
32977;DHT22;72327;50.842;4.450;2023-08-24T05:14:07;18.70;99.90
32977;DHT22;72327;50.842;4.450;2023-08-24T05:16:32;18.80;99.90
32977;DHT22;72327;50.842;4.450;2023-08-24T05:18:58;18.90;99.90
32977;DHT22;72327;50.842;4.450;2023-08-24T05:21:23;18.90;99.90
32977;DHT22;72327;50.842;4.450;2023-08-24T05:23:49;19.10;99.90
32977;DHT22;72327;50.842;4.450;2023-08-24T05:26:15;19.20;99.90
32977;DHT22;72327;50.842;4.450;2023-08-24T05:28:47;19.30;99.90
32977;DHT22;72327;50.842;4.450;2023-08-24T05:31:13;19.40;99.90
32977;DHT22;72327;50.842;4.450;2023-08-24T05:33:38;19.40;99.90
32977;DHT22;72327;50.842;4.450;2023-08-24T05:36:04;19.50;99.90
32977;DHT22;72327;50.842;4.450;2023-08-24T05:38:30;19.60;99.90
32977;DHT22;72327;50.842;4.450;2023-08-24T05:40:56;19.80;99.90
32977;DHT22;72327;50.842;4.450;2023-08-24T05:43:21;19.90;99.90
32977;DHT22;72327;50.842;4.450;2023-08-24T05:45:48;20.00;99.90
32977;DHT22;72327;50.842;4.450;2023-08-24T05:48:14;20.10;99.90
32977;DHT22;72327;50.842;4.450;2023-08-24T05:50:44;20.20;99.90
32977;DHT22;72327;50.842;4.450;2023-08-24T05:53:10;20.30;99.90
32977;DHT22;72327;50.842;4.450;2023-08-24T05:55:35;20.40;99.90
32977;DHT22;72327;50.842;4.450;2023-08-24T05:58:01;20.40;99.90
32977;DHT22;72327;50.842;4.450;2023-08-24T06:00:27;20.50;99.90
32977;DHT22;72327;50.842;4.450;2023-08-24T06:02:52;20.60;99.90
32977;DHT22;72327;50.842;4.450;2023-08-24T06:05:18;20.70;99.90
32977;DHT22;72327;50.842;4.450;2023-08-24T06:07:44;20.80;99.90
32977;DHT22;72327;50.842;4.450;2023-08-24T06:10:11;20.90;99.90
32977;DHT22;72327;50.842;4.450;2023-08-24T06:12:37;21.00;99.90
32977;DHT22;72327;50.842;4.450;2023-08-24T06:15:04;21.10;99.90
32977;DHT22;72327;50.842;4.450;2023-08-24T06:17:30;21.20;99.90
32977;DHT22;72327;50.842;4.450;2023-08-24T06:19:56;21.30;99.90
32977;DHT22;72327;50.842;4.450;2023-08-24T06:22:21;21.30;99.90
32977;DHT22;72327;50.842;4.450;2023-08-24T06:24:47;21.50;99.90
32977;DHT22;72327;50.842;4.450;2023-08-24T06:27:12;21.50;99.90
32977;DHT22;72327;50.842;4.450;2023-08-24T06:29:42;21.60;99.90
32977;DHT22;72327;50.842;4.450;2023-08-24T06:32:08;21.90;99.90
32977;DHT22;72327;50.842;4.450;2023-08-24T06:34:33;22.20;99.90
32977;DHT22;72327;50.842;4.450;2023-08-24T06:37:01;22.50;99.90
32977;DHT22;72327;50.842;4.450;2023-08-24T06:39:27;22.80;99.90
32977;DHT22;72327;50.842;4.450;2023-08-24T06:41:53;23.00;99.90
32977;DHT22;72327;50.842;4.450;2023-08-24T06:44:18;23.20;99.90
32977;DHT22;72327;50.842;4.450;2023-08-24T06:46:44;23.40;99.90
32977;DHT22;72327;50.842;4.450;2023-08-24T06:49:09;23.60;99.90
32977;DHT22;72327;50.842;4.450;2023-08-24T06:51:35;23.70;99.90
32977;DHT22;72327;50.842;4.450;2023-08-24T06:54:01;23.80;99.90
32977;DHT22;72327;50.842;4.450;2023-08-24T06:56:26;24.00;99.90
32977;DHT22;72327;50.842;4.450;2023-08-24T06:58:55;24.10;99.90
32977;DHT22;72327;50.842;4.450;2023-08-24T07:01:20;24.20;99.90
32977;DHT22;72327;50.842;4.450;2023-08-24T07:03:46;24.40;99.90
32977;DHT22;72327;50.842;4.450;2023-08-24T07:06:11;24.50;99.90
32977;DHT22;72327;50.842;4.450;2023-08-24T07:08:38;24.70;99.90
32977;DHT22;72327;50.842;4.450;2023-08-24T07:11:03;24.90;99.90
32977;DHT22;72327;50.842;4.450;2023-08-24T07:13:29;25.10;99.90
32977;DHT22;72327;50.842;4.450;2023-08-24T07:15:54;25.40;99.90
32977;DHT22;72327;50.842;4.450;2023-08-24T07:18:23;25.70;99.90
32977;DHT22;72327;50.842;4.450;2023-08-24T07:20:48;26.00;99.90
32977;DHT22;72327;50.842;4.450;2023-08-24T07:23:14;26.30;99.90
32977;DHT22;72327;50.842;4.450;2023-08-24T07:25:40;26.40;99.90
32977;DHT22;72327;50.842;4.450;2023-08-24T07:28:06;26.50;99.90
32977;DHT22;72327;50.842;4.450;2023-08-24T07:30:32;26.50;99.90
32977;DHT22;72327;50.842;4.450;2023-08-24T07:32:58;26.60;99.90
32977;DHT22;72327;50.842;4.450;2023-08-24T07:35:24;26.60;99.90
32977;DHT22;72327;50.842;4.450;2023-08-24T07:37:53;26.60;99.90
32977;DHT22;72327;50.842;4.450;2023-08-24T07:40:19;26.70;99.90
32977;DHT22;72327;50.842;4.450;2023-08-24T07:45:12;27.00;99.90
32977;DHT22;72327;50.842;4.450;2023-08-24T07:47:46;27.00;99.90
32977;DHT22;72327;50.842;4.450;2023-08-24T07:50:12;27.10;99.90
32977;DHT22;72327;50.842;4.450;2023-08-24T07:55:15;27.20;99.90
32977;DHT22;72327;50.842;4.450;2023-08-24T07:57:41;27.40;99.90
32977;DHT22;72327;50.842;4.450;2023-08-24T08:00:07;27.40;99.90
32977;DHT22;72327;50.842;4.450;2023-08-24T08:02:35;27.40;99.90
32977;DHT22;72327;50.842;4.450;2023-08-24T08:05:02;27.40;99.90
32977;DHT22;72327;50.842;4.450;2023-08-24T08:07:28;27.40;99.90
32977;DHT22;72327;50.842;4.450;2023-08-24T08:09:54;27.40;99.90
32977;DHT22;72327;50.842;4.450;2023-08-24T08:12:19;27.40;99.90
32977;DHT22;72327;50.842;4.450;2023-08-24T08:14:45;27.50;99.90
32977;DHT22;72327;50.842;4.450;2023-08-24T08:17:11;27.50;99.90
32977;DHT22;72327;50.842;4.450;2023-08-24T08:19:37;27.50;99.90
32977;DHT22;72327;50.842;4.450;2023-08-24T08:22:04;27.50;99.90
32977;DHT22;72327;50.842;4.450;2023-08-24T08:24:29;27.60;99.90
32977;DHT22;72327;50.842;4.450;2023-08-24T08:26:55;27.60;99.90
32977;DHT22;72327;50.842;4.450;2023-08-24T08:29:21;27.70;99.90
32977;DHT22;72327;50.842;4.450;2023-08-24T08:31:46;27.80;99.90
32977;DHT22;72327;50.842;4.450;2023-08-24T08:34:12;27.70;99.90
32977;DHT22;72327;50.842;4.450;2023-08-24T08:36:38;27.90;99.90
32977;DHT22;72327;50.842;4.450;2023-08-24T08:39:03;27.90;99.90
32977;DHT22;72327;50.842;4.450;2023-08-24T08:41:33;28.10;99.90
32977;DHT22;72327;50.842;4.450;2023-08-24T08:44:05;28.10;99.90
32977;DHT22;72327;50.842;4.450;2023-08-24T08:46:32;28.20;99.90
32977;DHT22;72327;50.842;4.450;2023-08-24T08:48:59;28.20;99.90
32977;DHT22;72327;50.842;4.450;2023-08-24T08:51:26;28.30;99.90
32977;DHT22;72327;50.842;4.450;2023-08-24T08:53:52;28.50;99.90
32977;DHT22;72327;50.842;4.450;2023-08-24T08:56:18;28.70;99.90
32977;DHT22;72327;50.842;4.450;2023-08-24T08:58:44;28.80;99.90
32977;DHT22;72327;50.842;4.450;2023-08-24T09:01:12;28.80;99.90
32977;DHT22;72327;50.842;4.450;2023-08-24T09:03:39;28.90;99.70
32977;DHT22;72327;50.842;4.450;2023-08-24T09:06:05;28.90;99.50
32977;DHT22;72327;50.842;4.450;2023-08-24T09:08:31;28.90;99.70
32977;DHT22;72327;50.842;4.450;2023-08-24T09:10:58;28.80;99.50
32977;DHT22;72327;50.842;4.450;2023-08-24T09:13:25;28.70;99.70
32977;DHT22;72327;50.842;4.450;2023-08-24T09:15:54;28.40;99.90
32977;DHT22;72327;50.842;4.450;2023-08-24T09:18:19;28.20;99.90
32977;DHT22;72327;50.842;4.450;2023-08-24T09:20:47;28.00;99.90
32977;DHT22;72327;50.842;4.450;2023-08-24T09:23:19;27.80;99.90
32977;DHT22;72327;50.842;4.450;2023-08-24T09:25:47;27.60;99.90
32977;DHT22;72327;50.842;4.450;2023-08-24T09:28:13;27.40;99.90
32977;DHT22;72327;50.842;4.450;2023-08-24T09:30:39;27.30;99.90
32977;DHT22;72327;50.842;4.450;2023-08-24T09:33:10;27.00;99.90
32977;DHT22;72327;50.842;4.450;2023-08-24T09:35:36;26.80;99.90
32977;DHT22;72327;50.842;4.450;2023-08-24T09:38:18;26.60;99.90
32977;DHT22;72327;50.842;4.450;2023-08-24T09:40:46;26.30;99.90
32977;DHT22;72327;50.842;4.450;2023-08-24T09:43:14;25.60;99.90
32977;DHT22;72327;50.842;4.450;2023-08-24T09:45:53;25.00;99.90
32977;DHT22;72327;50.842;4.450;2023-08-24T09:48:20;24.60;99.90
32977;DHT22;72327;50.842;4.450;2023-08-24T09:50:46;24.20;99.90
32977;DHT22;72327;50.842;4.450;2023-08-24T09:53:18;23.70;99.90
32977;DHT22;72327;50.842;4.450;2023-08-24T09:55:59;23.30;99.90
32977;DHT22;72327;50.842;4.450;2023-08-24T09:58:25;22.80;99.90
32977;DHT22;72327;50.842;4.450;2023-08-24T10:00:52;22.50;99.90
32977;DHT22;72327;50.842;4.450;2023-08-24T10:03:19;22.20;99.90
32977;DHT22;72327;50.842;4.450;2023-08-24T10:05:50;21.90;99.90
32977;DHT22;72327;50.842;4.450;2023-08-24T10:08:23;21.80;99.90
32977;DHT22;72327;50.842;4.450;2023-08-24T10:10:54;21.70;99.90
32977;DHT22;72327;50.842;4.450;2023-08-24T10:15:56;21.50;99.90
32977;DHT22;72327;50.842;4.450;2023-08-24T10:18:23;21.50;99.90
32977;DHT22;72327;50.842;4.450;2023-08-24T10:20:50;21.50;99.90
32977;DHT22;72327;50.842;4.450;2023-08-24T10:23:16;21.40;99.90
32977;DHT22;72327;50.842;4.450;2023-08-24T10:25:44;21.40;99.90
32977;DHT22;72327;50.842;4.450;2023-08-24T10:28:11;21.40;99.90
32977;DHT22;72327;50.842;4.450;2023-08-24T10:30:38;21.40;99.90
32977;DHT22;72327;50.842;4.450;2023-08-24T10:33:05;21.50;99.90
32977;DHT22;72327;50.842;4.450;2023-08-24T10:35:32;21.50;99.90
32977;DHT22;72327;50.842;4.450;2023-08-24T10:37:59;21.60;99.90
32977;DHT22;72327;50.842;4.450;2023-08-24T10:40:36;21.70;99.90
32977;DHT22;72327;50.842;4.450;2023-08-24T10:43:04;21.80;99.90
32977;DHT22;72327;50.842;4.450;2023-08-24T10:45:55;21.80;99.90
32977;DHT22;72327;50.842;4.450;2023-08-24T10:49:08;21.80;99.90
32977;DHT22;72327;50.842;4.450;2023-08-24T10:54:00;22.10;99.90
32977;DHT22;72327;50.842;4.450;2023-08-24T10:56:52;22.30;99.90
32977;DHT22;72327;50.842;4.450;2023-08-24T10:59:19;22.50;99.90
32977;DHT22;72327;50.842;4.450;2023-08-24T11:01:57;22.70;99.90
32977;DHT22;72327;50.842;4.450;2023-08-24T11:04:24;22.80;99.90
32977;DHT22;72327;50.842;4.450;2023-08-24T11:06:52;23.00;99.90
32977;DHT22;72327;50.842;4.450;2023-08-24T11:09:18;23.20;99.90
32977;DHT22;72327;50.842;4.450;2023-08-24T11:12:01;23.40;99.90
32977;DHT22;72327;50.842;4.450;2023-08-24T11:14:29;23.60;99.90
32977;DHT22;72327;50.842;4.450;2023-08-24T11:17:18;23.90;99.90
32977;DHT22;72327;50.842;4.450;2023-08-24T11:19:53;24.10;99.90
32977;DHT22;72327;50.842;4.450;2023-08-24T11:22:22;24.20;99.90
32977;DHT22;72327;50.842;4.450;2023-08-24T11:24:48;24.30;99.90
32977;DHT22;72327;50.842;4.450;2023-08-24T11:27:14;24.40;99.90
32977;DHT22;72327;50.842;4.450;2023-08-24T11:29:42;24.50;99.90
32977;DHT22;72327;50.842;4.450;2023-08-24T11:32:07;24.60;99.90
32977;DHT22;72327;50.842;4.450;2023-08-24T11:34:34;24.60;99.90
32977;DHT22;72327;50.842;4.450;2023-08-24T11:37:01;24.70;99.90
32977;DHT22;72327;50.842;4.450;2023-08-24T11:39:27;24.60;99.90
32977;DHT22;72327;50.842;4.450;2023-08-24T11:42:00;24.70;99.90
32977;DHT22;72327;50.842;4.450;2023-08-24T11:44:26;24.70;99.90
32977;DHT22;72327;50.842;4.450;2023-08-24T11:46:52;24.70;99.90
32977;DHT22;72327;50.842;4.450;2023-08-24T11:49:18;24.80;99.90
32977;DHT22;72327;50.842;4.450;2023-08-24T11:51:44;24.60;99.90
32977;DHT22;72327;50.842;4.450;2023-08-24T11:54:10;24.60;99.90
32977;DHT22;72327;50.842;4.450;2023-08-24T11:56:42;24.60;99.90
32977;DHT22;72327;50.842;4.450;2023-08-24T11:59:15;24.50;99.90
32977;DHT22;72327;50.842;4.450;2023-08-24T12:01:41;24.30;99.90
32977;DHT22;72327;50.842;4.450;2023-08-24T12:04:07;24.20;99.90
32977;DHT22;72327;50.842;4.450;2023-08-24T12:06:33;24.10;99.90
32977;DHT22;72327;50.842;4.450;2023-08-24T12:08:59;24.10;99.90
32977;DHT22;72327;50.842;4.450;2023-08-24T12:11:25;24.10;99.90
32977;DHT22;72327;50.842;4.450;2023-08-24T12:13:54;23.90;99.90
32977;DHT22;72327;50.842;4.450;2023-08-24T12:16:21;23.80;99.90
32977;DHT22;72327;50.842;4.450;2023-08-24T12:21:14;23.50;99.90
32977;DHT22;72327;50.842;4.450;2023-08-24T12:23:40;23.40;99.90
32977;DHT22;72327;50.842;4.450;2023-08-24T12:26:05;23.30;99.90
32977;DHT22;72327;50.842;4.450;2023-08-24T12:28:33;23.10;99.90
32977;DHT22;72327;50.842;4.450;2023-08-24T12:30:59;22.80;99.90
32977;DHT22;72327;50.842;4.450;2023-08-24T12:33:30;22.60;99.90
32977;DHT22;72327;50.842;4.450;2023-08-24T12:35:57;22.40;99.90
32977;DHT22;72327;50.842;4.450;2023-08-24T12:38:25;22.20;99.90
32977;DHT22;72327;50.842;4.450;2023-08-24T12:40:51;22.20;99.90
32977;DHT22;72327;50.842;4.450;2023-08-24T12:43:17;22.10;99.90
32977;DHT22;72327;50.842;4.450;2023-08-24T12:45:43;22.20;99.90
32977;DHT22;72327;50.842;4.450;2023-08-24T12:48:09;22.00;99.90
32977;DHT22;72327;50.842;4.450;2023-08-24T12:50:37;22.00;99.90
32977;DHT22;72327;50.842;4.450;2023-08-24T12:53:03;21.80;99.90
32977;DHT22;72327;50.842;4.450;2023-08-24T12:55:32;21.70;99.90
32977;DHT22;72327;50.842;4.450;2023-08-24T12:57:57;21.50;99.90
32977;DHT22;72327;50.842;4.450;2023-08-24T13:00:23;21.50;99.90
32977;DHT22;72327;50.842;4.450;2023-08-24T13:02:50;21.50;99.90
32977;DHT22;72327;50.842;4.450;2023-08-24T13:05:16;21.40;99.90
32977;DHT22;72327;50.842;4.450;2023-08-24T13:07:42;21.40;99.90
32977;DHT22;72327;50.842;4.450;2023-08-24T13:10:08;21.40;99.90
32977;DHT22;72327;50.842;4.450;2023-08-24T13:16:04;21.50;99.90
32977;DHT22;72327;50.842;4.450;2023-08-24T13:18:30;21.40;99.90
32977;DHT22;72327;50.842;4.450;2023-08-24T13:20:55;21.40;99.90
32977;DHT22;72327;50.842;4.450;2023-08-24T13:27:07;21.60;99.90
32977;DHT22;72327;50.842;4.450;2023-08-24T13:29:36;21.50;99.90
32977;DHT22;72327;50.842;4.450;2023-08-24T13:32:02;21.50;99.90
32977;DHT22;72327;50.842;4.450;2023-08-24T13:34:43;21.60;99.90
32977;DHT22;72327;50.842;4.450;2023-08-24T13:37:25;21.70;99.90
32977;DHT22;72327;50.842;4.450;2023-08-24T13:39:51;21.70;99.90
32977;DHT22;72327;50.842;4.450;2023-08-24T13:42:17;21.60;99.90
32977;DHT22;72327;50.842;4.450;2023-08-24T13:44:43;21.80;99.90
32977;DHT22;72327;50.842;4.450;2023-08-24T13:47:09;21.90;99.90
32977;DHT22;72327;50.842;4.450;2023-08-24T13:49:34;22.00;99.90
32977;DHT22;72327;50.842;4.450;2023-08-24T13:52:00;22.10;99.90
32977;DHT22;72327;50.842;4.450;2023-08-24T13:54:26;22.20;99.90
32977;DHT22;72327;50.842;4.450;2023-08-24T13:56:52;22.30;99.90
32977;DHT22;72327;50.842;4.450;2023-08-24T13:59:19;22.60;99.90
32977;DHT22;72327;50.842;4.450;2023-08-24T14:01:45;22.60;99.90
32977;DHT22;72327;50.842;4.450;2023-08-24T14:04:11;22.70;99.90
32977;DHT22;72327;50.842;4.450;2023-08-24T14:06:37;22.70;99.90
32977;DHT22;72327;50.842;4.450;2023-08-24T14:09:03;22.80;99.90
32977;DHT22;72327;50.842;4.450;2023-08-24T14:11:30;23.00;99.90
32977;DHT22;72327;50.842;4.450;2023-08-24T14:13:56;23.20;99.90
32977;DHT22;72327;50.842;4.450;2023-08-24T14:16:22;23.20;99.90
32977;DHT22;72327;50.842;4.450;2023-08-24T14:18:48;23.30;99.90
32977;DHT22;72327;50.842;4.450;2023-08-24T14:21:15;23.50;99.90
32977;DHT22;72327;50.842;4.450;2023-08-24T14:23:41;23.60;99.90
32977;DHT22;72327;50.842;4.450;2023-08-24T14:26:07;23.80;99.90
32977;DHT22;72327;50.842;4.450;2023-08-24T14:28:56;23.80;99.90
32977;DHT22;72327;50.842;4.450;2023-08-24T14:31:29;23.80;99.90
32977;DHT22;72327;50.842;4.450;2023-08-24T14:33:55;23.90;99.90
32977;DHT22;72327;50.842;4.450;2023-08-24T14:36:22;23.90;99.90
32977;DHT22;72327;50.842;4.450;2023-08-24T14:38:49;24.10;99.90
32977;DHT22;72327;50.842;4.450;2023-08-24T14:41:15;24.20;99.90
32977;DHT22;72327;50.842;4.450;2023-08-24T14:43:41;24.10;99.90
32977;DHT22;72327;50.842;4.450;2023-08-24T14:46:10;24.20;99.90
32977;DHT22;72327;50.842;4.450;2023-08-24T14:48:36;24.30;99.90
32977;DHT22;72327;50.842;4.450;2023-08-24T14:51:02;24.40;99.90
32977;DHT22;72327;50.842;4.450;2023-08-24T14:53:28;24.50;99.90
32977;DHT22;72327;50.842;4.450;2023-08-24T14:55:55;24.50;99.90
32977;DHT22;72327;50.842;4.450;2023-08-24T15:02:04;24.60;99.90
32977;DHT22;72327;50.842;4.450;2023-08-24T15:04:30;24.80;99.90
32977;DHT22;72327;50.842;4.450;2023-08-24T15:06:57;24.90;99.90
32977;DHT22;72327;50.842;4.450;2023-08-24T15:09:22;24.80;99.90
32977;DHT22;72327;50.842;4.450;2023-08-24T15:12:08;24.90;99.90
32977;DHT22;72327;50.842;4.450;2023-08-24T15:14:34;24.80;99.90
32977;DHT22;72327;50.842;4.450;2023-08-24T15:17:00;24.90;99.90
32977;DHT22;72327;50.842;4.450;2023-08-24T15:19:25;24.80;99.90
32977;DHT22;72327;50.842;4.450;2023-08-24T15:21:51;24.90;99.90
32977;DHT22;72327;50.842;4.450;2023-08-24T15:24:16;24.90;99.90
32977;DHT22;72327;50.842;4.450;2023-08-24T15:26:42;25.00;99.90
32977;DHT22;72327;50.842;4.450;2023-08-24T15:29:09;25.00;99.90
32977;DHT22;72327;50.842;4.450;2023-08-24T15:31:35;25.10;99.90
32977;DHT22;72327;50.842;4.450;2023-08-24T15:34:01;25.30;99.90
32977;DHT22;72327;50.842;4.450;2023-08-24T15:36:54;25.30;99.90
32977;DHT22;72327;50.842;4.450;2023-08-24T15:42:40;25.60;99.90
32977;DHT22;72327;50.842;4.450;2023-08-24T15:45:06;25.70;99.90
32977;DHT22;72327;50.842;4.450;2023-08-24T15:47:31;26.20;99.90
32977;DHT22;72327;50.842;4.450;2023-08-24T15:49:57;26.40;99.90
32977;DHT22;72327;50.842;4.450;2023-08-24T15:52:23;26.50;99.90
32977;DHT22;72327;50.842;4.450;2023-08-24T15:54:48;26.70;99.90
32977;DHT22;72327;50.842;4.450;2023-08-24T15:57:16;26.80;99.90
32977;DHT22;72327;50.842;4.450;2023-08-24T16:06:05;27.30;99.90